Time;durP1;ratioP1;P1;durP2;ratioP2;P2;SDS_P1;SDS_P2;PMS_P1;PMS_P2;Temp;Humidity;BMP_temperature;BMP_pressure;BME280_temperature;BME280_humidity;BME280_pressure;Samples;Min_cycle;Max_cycle;Signal;HPM_P1;HPM_P2
2023/05/19 00:02:21;;;;;;;9.40;4.20;;;9.60;99.90;;;-144.05;52.16;56859.47;5051620;28;20025;-78
2023/05/19 00:04:48;;;;;;;12.38;4.35;;;9.60;99.90;;;-144.05;52.41;56865.81;5051418;28;20029;-78
2023/05/19 00:07:19;;;;;;;9.07;4.70;;;9.50;99.90;;;-144.05;52.52;56857.34;5051865;28;20036;-77
2023/05/19 00:09:45;;;;;;;12.25;4.03;;;9.50;99.90;;;-144.05;52.95;56859.47;5033061;28;20033;-77
2023/05/19 00:12:12;;;;;;;11.60;5.32;;;9.40;99.90;;;-144.05;53.49;56848.84;5051081;28;20053;-77
2023/05/19 00:14:39;;;;;;;12.60;4.85;;;9.40;99.90;;;-144.05;53.59;56859.47;5050970;28;20045;-76
2023/05/19 00:17:06;;;;;;;9.57;4.47;;;9.30;99.90;;;-144.05;53.83;56870.06;5051088;28;20047;-77
2023/05/19 00:19:32;;;;;;;11.43;4.55;;;9.30;99.90;;;-144.05;53.68;56846.72;5050998;28;20060;-76
2023/05/19 00:21:58;;;;;;;12.55;4.20;;;9.30;99.90;;;-144.05;53.89;56855.22;5051233;28;20027;-79
2023/05/19 00:24:24;;;;;;;14.00;5.15;;;9.30;99.90;;;-144.05;53.76;56855.22;5051403;28;20096;-78
2023/05/19 00:26:50;;;;;;;8.63;4.20;;;9.30;99.90;;;-144.05;53.88;56855.22;5051354;28;20557;-79
2023/05/19 00:29:17;;;;;;;10.23;4.50;;;9.20;99.90;;;-144.05;54.00;56870.06;5051544;28;20580;-76
2023/05/19 00:31:43;;;;;;;13.40;4.70;;;9.20;99.90;;;-144.05;54.12;56850.97;5050113;28;20057;-76
2023/05/19 00:34:09;;;;;;;10.35;5.15;;;9.20;99.90;;;-144.05;54.31;56840.34;5051110;28;20072;-76
2023/05/19 00:36:35;;;;;;;12.32;4.97;;;9.20;99.90;;;-144.05;54.44;56853.09;5033993;28;20033;-76
2023/05/19 00:39:01;;;;;;;11.90;5.22;;;9.10;99.90;;;-144.05;54.32;56870.06;5054193;28;20029;-77
2023/05/19 00:41:27;;;;;;;9.25;4.88;;;9.10;99.90;;;-144.05;54.55;56840.34;5054340;28;20029;-78
2023/05/19 00:43:54;;;;;;;13.55;5.32;;;9.10;99.90;;;-144.05;54.46;56836.09;5054567;28;20452;-77
2023/05/19 00:46:21;;;;;;;13.05;5.10;;;9.00;99.90;;;-144.05;54.47;56848.84;5054297;28;20021;-76
2023/05/19 00:48:47;;;;;;;10.80;4.78;;;9.00;99.90;;;-144.05;54.73;56857.34;5054293;28;20086;-77
2023/05/19 00:51:15;;;;;;;12.48;5.00;;;8.90;99.90;;;-144.05;54.22;56863.69;5054135;28;20036;-75
2023/05/19 00:53:47;;;;;;;7.20;4.45;;;8.90;99.90;;;-144.05;54.63;56855.22;5054558;28;20083;-77
2023/05/19 00:56:15;;;;;;;12.88;4.85;;;8.80;99.90;;;-144.05;54.74;56863.69;5053896;28;20025;-77
2023/05/19 00:58:41;;;;;;;10.32;4.60;;;8.70;99.90;;;-144.05;55.26;56857.34;5054464;28;20496;-76
2023/05/19 01:01:07;;;;;;;12.45;5.10;;;8.70;99.90;;;-144.05;55.40;56844.59;5037076;28;20037;-79
2023/05/19 01:03:34;;;;;;;14.13;5.43;;;8.60;99.90;;;-144.05;55.75;56855.22;5054518;28;20029;-76
2023/05/19 01:06:06;;;;;;;13.77;5.47;;;8.60;99.90;;;-144.05;55.49;56846.72;5054408;28;20025;-77
2023/05/19 01:08:36;;;;;;;14.50;5.72;;;8.60;99.90;;;-144.05;55.46;56833.97;5036654;28;20036;-74
2023/05/19 01:11:06;;;;;;;11.77;6.22;;;8.50;99.90;;;-144.05;55.66;56846.72;5036248;28;20120;-75
2023/05/19 01:13:35;;;;;;;17.17;6.53;;;8.50;99.90;;;-144.05;56.38;56848.84;5054347;28;20484;-78
2023/05/19 01:16:32;;;;;;;15.63;5.45;;;8.50;99.90;;;-144.05;55.93;56870.06;5054433;28;20033;-78
2023/05/19 01:20:00;;;;;;;10.45;6.38;;;8.50;99.90;;;-144.05;56.19;56857.34;5054435;28;20079;-76
2023/05/19 01:22:42;;;;;;;9.82;4.90;;;8.40;99.90;;;-144.05;56.65;56865.81;5036716;28;20135;-77
2023/05/19 01:26:40;;;;;;;10.25;4.75;;;8.30;99.90;;;-144.05;56.78;56829.72;5036001;28;20017;-77
2023/05/19 01:29:28;;;;;;;11.05;4.72;;;8.20;99.90;;;-144.05;57.30;56859.47;4994014;28;20063;-77
2023/05/19 01:31:59;;;;;;;14.63;5.90;;;8.20;99.90;;;-144.05;57.49;56863.69;5054043;28;20087;-77
2023/05/19 01:34:28;;;;;;;13.68;4.93;;;8.20;99.90;;;-144.05;57.55;56846.72;5053613;28;20029;-76
2023/05/19 01:36:57;;;;;;;11.60;4.93;;;8.20;99.90;;;-144.05;57.51;56861.56;5053098;28;20028;-76
2023/05/19 01:39:25;;;;;;;13.68;5.72;;;8.20;99.90;;;-144.05;57.64;56870.06;5053453;28;20078;-77
2023/05/19 01:41:53;;;;;;;11.15;5.82;;;8.10;99.90;;;-144.05;57.74;56861.56;5035073;28;20508;-76
2023/05/19 01:44:21;;;;;;;11.13;4.97;;;8.10;99.90;;;-144.05;57.88;56863.69;5053141;28;20480;-76
2023/05/19 01:46:49;;;;;;;10.20;4.50;;;8.00;99.90;;;-144.05;58.27;56865.81;5052684;28;20029;-77
2023/05/19 01:49:15;;;;;;;8.45;4.60;;;8.00;99.90;;;-144.05;58.56;56865.81;5052843;28;20057;-77
2023/05/19 01:51:42;;;;;;;11.23;5.10;;;7.90;99.90;;;-144.05;58.49;56867.94;5035071;28;20064;-77
2023/05/19 01:54:08;;;;;;;14.43;5.32;;;7.90;99.90;;;-144.05;58.39;56848.84;5034986;28;20025;-77
2023/05/19 01:57:12;;;;;;;10.30;4.80;;;7.80;99.90;;;-144.05;59.06;56865.81;5052615;28;20028;-77
2023/05/19 02:00:17;;;;;;;11.95;5.68;;;7.70;99.90;;;-144.05;59.39;56857.34;5036951;28;20543;-78
2023/05/19 02:03:25;;;;;;;14.40;5.72;;;7.60;99.90;;;-144.05;59.54;56857.34;5035296;28;20028;-78
2023/05/19 02:06:02;;;;;;;10.73;5.40;;;7.60;99.90;;;-144.05;59.87;56878.56;5053604;28;20029;-78
2023/05/19 02:08:57;;;;;;;12.55;5.25;;;7.50;99.90;;;-144.05;59.99;56857.34;5034993;28;20028;-76
2023/05/19 02:11:37;;;;;;;13.65;5.93;;;7.40;99.90;;;-144.05;60.63;56833.97;5035790;28;20029;-78
2023/05/19 02:14:28;;;;;;;12.77;5.50;;;7.30;99.90;;;-144.05;61.05;56846.72;5053143;28;20493;-77
2023/05/19 02:16:58;;;;;;;13.75;5.45;;;7.20;99.90;;;-144.05;61.30;56859.47;5034906;28;20481;-76
2023/05/19 02:19:30;;;;;;;11.15;5.22;;;7.20;99.90;;;-144.05;61.75;56848.84;5034839;28;20029;-74
2023/05/19 02:21:56;;;;;;;6.80;4.88;;;7.10;99.90;;;-144.05;62.35;56878.56;5053423;28;20558;-78
2023/05/19 02:24:23;;;;;;;15.93;6.80;;;6.90;99.90;;;-144.05;63.00;56859.47;5054040;28;20555;-78
2023/05/19 02:26:52;;;;;;;14.93;6.30;;;6.90;99.90;;;-144.05;62.95;56844.59;5034681;28;20036;-76
2023/05/19 02:29:19;;;;;;;14.73;6.05;;;6.80;99.90;;;-144.05;63.03;56848.84;5052340;28;20457;-76
2023/05/19 02:31:46;;;;;;;11.30;5.63;;;6.80;99.90;;;-144.05;63.77;56850.97;5052538;28;20029;-77
2023/05/19 02:34:12;;;;;;;13.88;6.03;;;6.70;99.90;;;-144.05;63.99;56863.69;5052307;28;20476;-75
2023/05/19 02:36:41;;;;;;;13.25;6.45;;;6.60;99.90;;;-144.05;64.43;56878.56;5088922;22;20045;-77
2023/05/19 02:39:09;;;;;;;16.60;6.72;;;6.50;99.90;;;-144.05;64.83;56863.69;5074081;28;20037;-77
2023/05/19 02:41:37;;;;;;;11.73;5.40;;;6.50;99.90;;;-144.05;65.24;56865.81;5074440;28;20074;-77
2023/05/19 02:44:03;;;;;;;9.63;5.90;;;6.40;99.90;;;-144.05;65.51;56865.81;5074296;28;20376;-77
2023/05/19 02:46:29;;;;;;;20.52;6.32;;;6.40;99.90;;;-144.05;65.83;56865.81;5073938;28;20017;-77
2023/05/19 02:48:55;;;;;;;16.60;6.07;;;6.30;99.90;;;-144.05;66.36;56846.72;5074277;28;20392;-77
2023/05/19 02:51:21;;;;;;;14.68;6.28;;;6.30;99.90;;;-144.05;66.36;56857.34;5074091;28;20030;-77
2023/05/19 02:53:47;;;;;;;12.50;5.40;;;6.30;99.90;;;-144.05;66.48;56853.09;5073063;28;20052;-77
2023/05/19 02:56:13;;;;;;;13.88;7.18;;;6.20;99.90;;;-144.05;66.82;56876.44;5073937;28;20037;-77
2023/05/19 02:58:39;;;;;;;14.88;6.75;;;6.20;99.90;;;-144.05;66.99;56870.06;5072996;28;20032;-77
2023/05/19 03:01:04;;;;;;;11.52;5.72;;;6.20;99.90;;;-144.05;67.57;56859.47;5073798;28;20029;-77
2023/05/19 03:03:31;;;;;;;13.85;5.82;;;6.10;99.90;;;-144.05;67.58;56872.19;5074212;28;20029;-77
2023/05/19 03:05:57;;;;;;;9.80;6.00;;;6.10;99.90;;;-144.05;67.56;56867.94;5073850;28;20021;-77
2023/05/19 03:08:23;;;;;;;12.10;5.60;;;6.00;99.90;;;-144.05;67.67;56874.31;5090371;28;20029;-77
2023/05/19 03:10:49;;;;;;;11.40;5.97;;;5.90;99.90;;;-144.05;68.00;56874.31;5074953;28;20028;-77
2023/05/19 03:13:15;;;;;;;11.88;6.45;;;5.90;99.90;;;-144.05;68.26;56867.94;5075748;28;20032;-76
2023/05/19 03:15:41;;;;;;;11.50;5.85;;;5.80;99.90;;;-144.05;68.52;56882.81;5098728;28;20058;-75
2023/05/19 03:18:07;;;;;;;10.77;5.97;;;5.80;99.90;;;-144.05;68.57;56878.56;5073844;28;20054;-77
2023/05/19 03:20:34;;;;;;;9.23;5.13;;;5.70;99.90;;;-144.05;68.87;56872.19;5073716;28;20142;-78
2023/05/19 03:23:00;;;;;;;13.07;6.45;;;5.60;99.90;;;-144.05;69.08;56855.22;5074457;28;20066;-78
2023/05/19 03:25:26;;;;;;;13.52;7.13;;;5.60;99.90;;;-144.05;69.39;56872.19;5076353;28;20024;-78
2023/05/19 03:27:52;;;;;;;9.60;6.65;;;5.60;99.90;;;-144.05;69.49;56882.81;5091736;28;20052;-78
2023/05/19 03:30:18;;;;;;;12.15;5.28;;;5.60;99.90;;;-144.05;69.65;56867.94;5075978;28;20029;-78
2023/05/19 03:32:44;;;;;;;13.43;6.30;;;5.50;99.90;;;-144.05;69.85;56882.81;5076426;28;20392;-77
2023/05/19 03:35:09;;;;;;;13.20;7.10;;;5.50;99.90;;;-144.05;70.29;56887.06;5076270;28;20025;-77
2023/05/19 03:37:35;;;;;;;11.95;7.03;;;5.40;99.90;;;-144.05;70.54;56910.44;5075202;28;20062;-76
2023/05/19 03:40:02;;;;;;;12.00;7.45;;;5.40;99.90;;;-144.05;70.86;56893.44;5076992;28;20527;-78
2023/05/19 03:42:28;;;;;;;12.80;7.80;;;5.40;99.90;;;-144.05;71.32;56878.56;5076393;28;20503;-77
2023/05/19 03:44:54;;;;;;;12.15;6.57;;;5.50;99.90;;;-144.05;71.28;56895.56;5075337;28;20033;-78
2023/05/19 03:47:19;;;;;;;14.88;7.95;;;5.50;99.90;;;-144.05;71.42;56870.06;5075012;28;20036;-76
2023/05/19 03:49:45;;;;;;;18.13;7.85;;;5.60;99.90;;;-144.05;71.46;56880.69;5074291;28;20040;-77
2023/05/19 03:52:11;;;;;;;21.98;7.85;;;5.60;99.90;;;-144.05;71.58;56867.94;5089169;28;20072;-77
2023/05/19 03:54:38;;;;;;;18.27;8.57;;;5.60;99.90;;;-144.05;71.90;56857.34;5090285;28;20033;-78
2023/05/19 03:57:04;;;;;;;14.93;8.27;;;5.60;99.90;;;-144.05;71.87;56865.81;5076482;28;20054;-78
2023/05/19 03:59:30;;;;;;;21.40;8.20;;;5.70;99.90;;;-144.05;71.62;56867.94;5091268;28;20024;-77
2023/05/19 04:01:57;;;;;;;16.25;9.60;;;5.80;99.90;;;-144.05;71.81;56889.19;5074218;28;20048;-78
2023/05/19 04:04:22;;;;;;;18.38;8.48;;;5.80;99.90;;;-144.05;72.02;56867.94;5091881;28;20025;-77
2023/05/19 04:06:48;;;;;;;20.00;7.88;;;5.90;99.90;;;-144.05;71.66;56870.06;5091635;28;20118;-76
2023/05/19 04:09:15;;;;;;;17.02;8.38;;;6.00;99.90;;;-144.05;71.57;56870.06;5075928;28;20021;-77
2023/05/19 04:11:42;;;;;;;14.05;8.80;;;6.00;99.90;;;-144.05;71.49;56857.34;5079009;28;20036;-78
2023/05/19 04:14:08;;;;;;;15.18;8.27;;;6.00;99.90;;;-144.05;71.56;56895.56;5093214;28;20067;-77
2023/05/19 04:16:35;;;;;;;13.52;6.43;;;6.00;99.90;;;-144.05;71.37;56906.19;5093097;28;20042;-76
2023/05/19 04:19:01;;;;;;;16.08;7.57;;;5.90;99.90;;;-144.05;71.62;56850.97;5092845;28;20537;-77
2023/05/19 04:21:27;;;;;;;16.95;7.88;;;5.90;99.90;;;-144.05;71.40;56891.31;5077362;28;20032;-76
2023/05/19 04:23:53;;;;;;;15.25;8.30;;;5.90;99.90;;;-144.05;71.39;56882.81;5076063;28;20033;-76
2023/05/19 04:26:20;;;;;;;12.10;7.22;;;6.00;99.90;;;-144.05;71.34;56876.44;5077216;28;20104;-77
2023/05/19 04:28:47;;;;;;;16.83;7.80;;;6.00;99.90;;;-144.05;71.45;56853.09;5076668;28;20394;-77
2023/05/19 04:31:14;;;;;;;14.45;7.60;;;6.20;99.90;;;-144.05;71.32;56874.31;5092394;28;20052;-77
2023/05/19 04:33:40;;;;;;;26.17;8.93;;;6.30;99.90;;;-144.05;70.92;56863.69;5092538;28;20028;-77
2023/05/19 04:36:09;;;;;;;26.45;8.80;;;6.50;99.90;;;-144.05;70.24;56861.56;5076752;28;20601;-77
2023/05/19 04:38:38;;;;;;;20.13;8.98;;;6.70;99.90;;;-144.05;69.62;56865.81;5076623;28;20028;-76
2023/05/19 04:41:09;;;;;;;14.93;7.65;;;6.80;99.90;;;-144.05;69.43;56867.94;5091880;28;20032;-77
2023/05/19 04:43:40;;;;;;;14.73;7.60;;;6.90;99.90;;;-144.05;68.71;56855.22;5076420;28;20515;-77
2023/05/19 04:46:09;;;;;;;14.40;8.20;;;7.00;99.90;;;-144.05;68.46;56857.34;5076475;28;20471;-77
2023/05/19 04:48:35;;;;;;;19.15;7.47;;;7.10;99.90;;;-144.05;68.18;56876.44;5093660;28;20039;-76
2023/05/19 04:51:01;;;;;;;14.15;7.60;;;7.20;99.90;;;-144.05;67.91;56836.09;5078863;28;20028;-76
2023/05/19 04:53:28;;;;;;;14.77;6.55;;;7.20;99.90;;;-144.05;67.32;56853.09;5076918;28;20395;-77
2023/05/19 04:55:57;;;;;;;14.98;7.63;;;7.40;99.90;;;-144.05;66.82;56872.19;5075275;28;20058;-77
2023/05/19 04:58:26;;;;;;;13.23;7.25;;;7.50;99.90;;;-144.05;66.45;56853.09;5076758;28;20083;-78
2023/05/19 05:00:59;;;;;;;14.40;6.95;;;7.60;99.90;;;-144.05;65.84;56870.06;5078531;28;20060;-77
2023/05/19 05:03:25;;;;;;;18.42;7.43;;;7.80;99.90;;;-144.05;65.04;56840.34;5092865;28;20500;-78
2023/05/19 05:05:51;;;;;;;13.35;7.13;;;8.10;99.90;;;-144.05;64.09;56848.84;5092118;28;20035;-77
2023/05/19 05:08:22;;;;;;;10.73;6.07;;;8.20;99.90;;;-144.05;63.08;56823.34;5075688;28;20391;-77
2023/05/19 05:10:52;;;;;;;11.30;5.45;;;8.30;99.90;;;-144.05;62.01;56833.97;5075521;28;20676;-77
2023/05/19 05:13:23;;;;;;;10.90;6.35;;;8.50;99.90;;;-144.05;60.77;56842.47;5075609;28;20048;-76
2023/05/19 05:15:53;;;;;;;14.25;6.00;;;8.70;99.90;;;-144.05;60.07;56840.34;5091532;28;20028;-77
2023/05/19 05:18:19;;;;;;;14.50;5.93;;;8.80;99.90;;;-144.05;59.29;56848.84;5076430;28;20529;-77
2023/05/19 05:20:47;;;;;;;12.95;5.43;;;9.00;99.90;;;-144.05;58.19;56855.22;5075871;28;20025;-77
2023/05/19 05:23:14;;;;;;;8.15;5.60;;;9.20;99.90;;;-144.05;57.31;56836.09;5076438;28;20021;-77
2023/05/19 05:25:41;;;;;;;15.07;5.88;;;9.40;99.90;;;-144.05;56.35;56838.22;5076211;28;20027;-79
2023/05/19 05:28:07;;;;;;;12.63;5.78;;;9.50;99.90;;;-144.05;55.84;56857.34;5078296;28;20035;-78
2023/05/19 05:30:34;;;;;;;8.82;5.20;;;9.70;99.90;;;-144.05;55.28;56831.84;5079106;28;20040;-78
2023/05/19 05:33:01;;;;;;;12.68;5.78;;;10.00;99.90;;;-144.05;54.58;56823.34;5079352;28;20035;-78
2023/05/19 05:35:27;;;;;;;11.05;4.65;;;10.20;99.90;;;-144.05;52.49;56827.59;5080700;28;20040;-77
2023/05/19 05:37:53;;;;;;;12.85;5.15;;;10.30;99.90;;;-144.05;52.41;56840.34;5079277;28;20135;-77
2023/05/19 05:40:19;;;;;;;9.20;4.93;;;10.50;99.90;;;-144.05;51.68;56836.09;5087970;28;20116;-77
2023/05/19 05:42:45;;;;;;;13.75;5.45;;;10.80;99.90;;;-144.05;50.70;56846.72;5080242;28;20368;-78
2023/05/19 05:45:11;;;;;;;10.23;5.32;;;10.90;99.90;;;-144.05;50.22;56836.09;5078590;28;20086;-77
2023/05/19 05:47:38;;;;;;;10.48;5.38;;;11.00;99.90;;;-144.05;49.83;56848.84;5079636;28;20024;-78
2023/05/19 05:50:09;;;;;;;10.20;4.35;;;11.10;99.90;;;-144.05;49.50;56836.09;5079189;28;20111;-77
2023/05/19 05:52:39;;;;;;;13.52;4.30;;;11.30;99.90;;;-144.05;48.53;56842.47;5078164;28;20029;-76
2023/05/19 05:55:06;;;;;;;12.45;5.00;;;11.50;99.90;;;-144.05;48.10;56831.84;5077756;28;20502;-77
2023/05/19 05:57:34;;;;;;;11.65;4.38;;;11.60;99.90;;;-144.05;47.77;56829.72;5076211;28;20109;-76
2023/05/19 06:00:00;;;;;;;9.82;4.20;;;11.60;99.90;;;-144.05;48.06;56823.34;5092457;28;20033;-76
2023/05/19 06:02:27;;;;;;;17.23;5.65;;;11.90;99.90;;;-144.05;46.57;56842.47;5077610;28;20021;-75
2023/05/19 06:04:53;;;;;;;11.02;4.63;;;12.10;99.90;;;-144.05;46.32;56840.34;5076914;28;20027;-78
2023/05/19 06:07:20;;;;;;;12.35;4.82;;;12.10;99.90;;;-144.05;46.28;56827.59;5076705;28;20033;-77
2023/05/19 06:09:45;;;;;;;10.32;4.05;;;12.30;99.90;;;-144.05;46.38;56838.22;5074790;28;20034;-76
2023/05/19 06:12:11;;;;;;;10.43;4.47;;;12.40;99.90;;;-144.05;44.77;56819.09;5075599;28;20064;-76
2023/05/19 06:14:37;;;;;;;12.52;4.10;;;12.50;99.90;;;-144.05;45.09;56814.84;5091367;28;20506;-78
2023/05/19 06:17:03;;;;;;;11.80;4.50;;;12.50;99.90;;;-144.05;44.94;56836.09;5073732;28;20052;-76
2023/05/19 06:19:30;;;;;;;11.20;4.03;;;12.70;99.90;;;-144.05;44.13;56836.09;5074406;28;20043;-78
2023/05/19 06:21:56;;;;;;;8.80;4.32;;;12.90;99.90;;;-144.05;43.82;56844.59;5075787;28;20059;-76
2023/05/19 06:24:22;;;;;;;15.20;5.18;;;13.00;99.90;;;-144.05;42.92;56827.59;5076192;28;20028;-76
2023/05/19 06:26:47;;;;;;;10.10;5.10;;;13.10;99.90;;;-144.05;43.42;56842.47;5075399;28;20037;-76
2023/05/19 06:29:13;;;;;;;12.18;5.28;;;13.40;99.90;;;-144.05;43.00;56808.47;5092384;28;20064;-78
2023/05/19 06:31:39;;;;;;;9.35;4.85;;;13.40;99.90;;;-144.05;42.90;56842.47;5075029;28;20029;-77
2023/05/19 06:34:05;;;;;;;12.45;5.07;;;13.60;99.90;;;-144.05;42.36;56846.72;5075076;28;20021;-76
2023/05/19 06:36:31;;;;;;;9.23;5.15;;;13.80;99.90;;;-144.05;41.87;56833.97;5075559;28;20114;-77
2023/05/19 06:38:57;;;;;;;8.05;5.07;;;13.70;99.90;;;-144.05;41.91;56804.22;5075748;28;20029;-77
2023/05/19 06:41:22;;;;;;;14.35;5.47;;;14.00;99.90;;;-144.05;41.07;56802.09;5074724;28;20368;-76
2023/05/19 06:43:48;;;;;;;12.02;4.32;;;14.10;99.90;;;-144.05;40.43;56810.59;5074046;28;20033;-76
2023/05/19 06:46:16;;;;;;;13.48;4.47;;;14.20;99.90;;;-144.05;41.41;56831.84;5074465;28;20028;-77
2023/05/19 06:48:42;;;;;;;9.77;4.60;;;14.30;99.90;;;-144.05;40.92;56836.09;5074367;28;20028;-78
2023/05/19 06:51:09;;;;;;;10.07;4.75;;;14.50;99.90;;;-144.05;40.18;56825.47;5075566;28;20039;-77
2023/05/19 06:53:35;;;;;;;14.80;4.75;;;14.70;99.90;;;-144.05;39.74;56816.97;5075863;28;20040;-76
2023/05/19 06:56:01;;;;;;;7.38;3.50;;;15.00;99.90;;;-144.05;39.70;56842.47;5073858;28;20469;-78
2023/05/19 06:58:27;;;;;;;9.68;4.18;;;15.30;99.90;;;-144.05;38.42;56831.84;5075642;28;20030;-76
2023/05/19 07:00:53;;;;;;;7.28;3.42;;;15.40;99.90;;;-144.05;37.97;56831.84;5076076;28;20043;-77
2023/05/19 07:03:18;;;;;;;12.63;3.83;;;15.40;99.90;;;-144.05;38.98;56848.84;5097186;28;20048;-77
2023/05/19 07:05:45;;;;;;;8.68;2.72;;;15.70;99.90;;;-144.05;38.42;56842.47;5066078;28;20081;-77
2023/05/19 07:08:11;;;;;;;9.75;3.22;;;16.00;99.90;;;-144.05;37.94;56848.84;5062120;28;20028;-76
2023/05/19 07:10:37;;;;;;;9.15;3.20;;;16.10;99.90;;;-144.05;37.64;56853.09;5063126;28;20029;-76
2023/05/19 07:13:03;;;;;;;7.55;2.83;;;16.20;99.90;;;-144.05;36.01;56859.47;5063888;28;20537;-76
2023/05/19 07:15:29;;;;;;;8.75;3.08;;;16.30;99.90;;;-144.05;37.73;56829.72;5063214;28;20021;-76
2023/05/19 07:17:55;;;;;;;10.80;2.70;;;16.20;99.90;;;-144.05;36.81;56829.72;5063007;28;20017;-76
2023/05/19 07:20:21;;;;;;;8.35;2.83;;;16.30;99.90;;;-144.05;36.40;56859.47;5063423;28;20430;-79
2023/05/19 07:22:46;;;;;;;5.60;2.35;;;16.40;99.90;;;-144.05;36.02;56855.22;5066149;28;20020;-76
2023/05/19 07:25:12;;;;;;;9.40;3.25;;;16.50;99.90;;;-144.05;36.07;56844.59;5062329;28;20035;-76
2023/05/19 07:27:38;;;;;;;7.78;2.53;;;16.60;99.90;;;-144.05;35.74;56846.72;5063976;28;20459;-76
2023/05/19 07:30:05;;;;;;;7.05;2.67;;;16.40;99.90;;;-144.05;36.23;56844.59;5064106;28;20048;-76
2023/05/19 07:32:31;;;;;;;11.77;2.30;;;16.50;99.90;;;-144.05;35.94;56850.97;5062796;28;20432;-77
2023/05/19 07:34:57;;;;;;;6.97;2.60;;;16.50;99.90;;;-144.05;35.52;56848.84;5066039;28;20032;-77
2023/05/19 07:37:22;;;;;;;7.65;2.58;;;16.80;99.90;;;-144.05;34.71;56853.09;5058644;28;20531;-77
2023/05/19 07:39:48;;;;;;;6.72;2.20;;;17.10;99.40;;;-144.05;34.06;56861.56;5057566;28;20072;-78
2023/05/19 07:42:14;;;;;;;6.55;2.70;;;17.20;97.60;;;-144.05;35.10;56844.59;5056724;28;20068;-76
2023/05/19 07:44:40;;;;;;;6.18;2.28;;;17.30;98.80;;;-144.05;34.75;56876.44;5056388;28;20021;-77
2023/05/19 07:47:06;;;;;;;5.07;2.13;;;17.50;98.60;;;-144.05;34.69;56836.09;5061921;28;20029;-78
2023/05/19 07:49:32;;;;;;;7.57;2.22;;;17.70;97.90;;;-144.05;34.03;56878.56;5057085;28;20036;-77
2023/05/19 07:51:57;;;;;;;7.22;2.38;;;17.80;97.20;;;-144.05;33.67;56857.34;5059711;28;20154;-79
2023/05/19 07:54:23;;;;;;;7.85;2.55;;;17.90;95.90;;;-144.05;33.80;56857.34;5058922;28;20039;-77
2023/05/19 07:56:49;;;;;;;6.65;2.00;;;17.90;95.10;;;-144.05;33.63;56887.06;5058763;28;20029;-77
2023/05/19 07:59:15;;;;;;;8.68;2.28;;;18.10;94.80;;;-144.05;33.12;56863.69;5058741;28;20454;-77
2023/05/19 08:01:41;;;;;;;6.65;2.42;;;18.10;94.10;;;-144.05;33.48;56850.97;5059860;28;20068;-77
2023/05/19 08:04:09;;;;;;;7.95;2.15;;;18.20;93.20;;;-144.05;33.63;56861.56;5058914;28;20112;-77
2023/05/19 08:06:35;;;;;;;6.95;2.30;;;17.90;92.90;;;-144.05;33.70;56846.72;5059688;28;20055;-76
2023/05/19 08:09:00;;;;;;;6.38;2.42;;;17.70;92.70;;;-144.05;33.59;56855.22;5059830;28;20036;-77
2023/05/19 08:11:26;;;;;;;7.03;2.38;;;17.90;92.70;;;-144.05;33.99;56859.47;5059002;28;20048;-79
2023/05/19 08:13:52;;;;;;;7.43;2.50;;;17.90;93.70;;;-144.05;33.53;56870.06;5062031;28;20025;-79
2023/05/19 08:16:18;;;;;;;8.25;2.20;;;18.10;93.30;;;-144.05;32.80;56831.84;5060398;28;20040;-78
2023/05/19 08:18:44;;;;;;;6.40;1.77;;;18.50;92.20;;;-144.05;31.56;56870.06;5058741;28;20033;-76
2023/05/19 08:21:10;;;;;;;9.00;2.20;;;18.70;90.30;;;-144.05;32.04;56850.97;5059818;28;20053;-77
2023/05/19 08:23:37;;;;;;;7.10;2.10;;;19.00;90.70;;;-144.05;31.36;56887.06;5059046;28;20032;-78
2023/05/19 08:26:04;;;;;;;9.10;2.13;;;19.30;89.00;;;-144.05;30.99;56884.94;5066046;28;20025;-77
2023/05/19 08:28:30;;;;;;;6.25;1.90;;;19.20;85.60;;;-144.05;30.99;56865.81;5057846;28;20025;-77
2023/05/19 08:30:56;;;;;;;5.90;1.67;;;19.00;83.70;;;-144.05;31.58;56884.94;5058259;28;20032;-77
2023/05/19 08:33:22;;;;;;;7.35;2.10;;;19.00;86.30;;;-144.05;31.39;56865.81;5058321;28;20033;-76
2023/05/19 08:35:48;;;;;;;9.57;2.17;;;19.20;85.80;;;-144.05;31.57;56895.56;5057299;28;20032;-75
2023/05/19 08:38:14;;;;;;;6.32;2.10;;;19.20;86.70;;;-144.05;31.63;56870.06;5058457;28;20044;-78
2023/05/19 08:40:45;;;;;;;6.18;1.95;;;19.20;85.60;;;-144.05;30.94;56874.31;5056498;28;20029;-76
2023/05/19 08:43:11;;;;;;;6.45;1.92;;;19.40;82.00;;;-144.05;31.70;56853.09;5058681;28;20080;-78
2023/05/19 08:45:47;;;;;;;5.03;1.92;;;19.20;83.00;;;-144.05;31.37;56880.69;5058906;28;20496;-78
2023/05/19 08:48:16;;;;;;;4.20;1.70;;;19.10;82.50;;;-144.05;31.50;56865.81;5060039;28;20443;-77
2023/05/19 08:51:07;;;;;;;6.15;1.98;;;19.30;82.10;;;-144.05;30.90;56882.81;5057226;28;20041;-77
2023/05/19 08:53:44;;;;;;;6.03;2.15;;;19.60;83.50;;;-144.05;31.11;56878.56;5057315;28;20108;-75
2023/05/19 08:56:21;;;;;;;6.70;1.83;;;20.00;82.10;;;-144.05;30.56;56863.69;5057116;28;20096;-77
2023/05/19 08:58:50;;;;;;;10.63;2.38;;;19.40;77.50;;;-144.05;30.63;56874.31;5057698;28;20033;-77
2023/05/19 09:01:18;;;;;;;3.08;1.23;;;19.30;78.50;;;-144.05;30.54;56853.09;5059430;28;20021;-78
2023/05/19 09:03:48;;;;;;;8.45;1.50;;;19.50;78.90;;;-144.05;29.12;56880.69;5058951;28;20028;-78
2023/05/19 09:06:14;;;;;;;5.32;1.42;;;19.80;73.50;;;-144.05;29.83;56882.81;5059147;28;20452;-77
2023/05/19 09:08:42;;;;;;;5.65;1.63;;;19.60;75.00;;;-144.05;29.65;56872.19;5059175;28;20107;-77
2023/05/19 09:11:09;;;;;;;5.18;1.95;;;20.00;74.40;;;-144.05;29.19;56887.06;5057766;28;20059;-78
2023/05/19 09:13:35;;;;;;;7.57;1.55;;;19.80;72.10;;;-144.05;29.55;56878.56;5059465;28;20025;-77
2023/05/19 09:16:02;;;;;;;5.65;1.48;;;19.60;71.90;;;-144.05;29.22;56870.06;5058877;28;20028;-77
2023/05/19 09:18:29;;;;;;;5.20;1.63;;;19.60;71.00;;;-144.05;29.21;56874.31;5057503;28;20033;-77
2023/05/19 09:21:01;;;;;;;10.05;1.83;;;19.50;72.10;;;-144.05;29.25;56878.56;5059720;28;20036;-77
2023/05/19 09:23:32;;;;;;;10.25;1.95;;;19.70;72.10;;;-144.05;28.91;56906.19;5055240;28;20064;-75
2023/05/19 09:26:06;;;;;;;6.30;1.83;;;20.10;71.30;;;-144.05;28.85;56884.94;5056731;28;20021;-75
2023/05/19 09:28:35;;;;;;;5.40;1.63;;;19.90;69.30;;;-144.05;28.19;56895.56;5056378;28;20025;-77
2023/05/19 09:31:10;;;;;;;6.65;1.40;;;19.80;67.00;;;-144.05;28.82;56880.69;5055847;28;20033;-75
2023/05/19 09:33:41;;;;;;;5.68;1.60;;;19.70;69.10;;;-144.05;28.85;56867.94;5057149;28;20108;-77
2023/05/19 09:36:09;;;;;;;8.43;1.80;;;19.80;70.20;;;-144.05;28.02;56884.94;5054940;28;20129;-75
2023/05/19 09:38:38;;;;;;;5.55;1.73;;;20.40;69.10;;;-144.05;28.10;56895.56;5056062;28;20427;-75
2023/05/19 09:41:07;;;;;;;6.55;1.70;;;20.70;67.00;;;-144.05;28.46;56874.31;5055264;28;20029;-77
2023/05/19 09:43:34;;;;;;;4.70;1.55;;;20.30;67.00;;;-144.05;27.84;56891.31;5056985;28;20029;-78
2023/05/19 09:46:08;;;;;;;5.15;1.48;;;20.40;65.40;;;-144.05;28.06;56882.81;5056385;28;20036;-75
2023/05/19 09:48:35;;;;;;;6.25;1.63;;;20.50;66.40;;;-144.05;27.44;56891.31;5054363;28;20029;-76
2023/05/19 09:51:06;;;;;;;6.03;2.10;;;20.40;63.60;;;-144.05;27.37;56872.19;5055946;28;20564;-77
2023/05/19 09:53:33;;;;;;;4.03;1.52;;;20.30;63.00;;;-144.05;27.58;56910.44;5055793;28;20043;-78
2023/05/19 09:56:02;;;;;;;7.05;1.73;;;20.30;64.00;;;-144.05;28.28;56891.31;5054083;28;20399;-77
2023/05/19 09:58:33;;;;;;;5.20;1.50;;;20.20;65.90;;;-144.05;28.18;56876.44;5055090;28;20033;-76
2023/05/19 10:01:02;;;;;;;3.28;1.23;;;20.30;65.70;;;-144.05;27.58;56912.56;5053938;28;20075;-77
2023/05/19 10:03:31;;;;;;;5.28;1.70;;;20.40;63.80;;;-144.05;27.39;56887.06;5055033;28;20108;-74
2023/05/19 10:06:08;;;;;;;4.90;1.48;;;20.90;64.30;;;-144.05;27.51;56891.31;5054564;28;20028;-75
2023/05/19 10:08:35;;;;;;;10.68;1.63;;;21.10;63.80;;;-144.05;26.83;56925.28;5052914;28;20031;-76
2023/05/19 10:11:02;;;;;;;5.90;1.20;;;21.20;61.70;;;-144.05;26.95;56908.31;5054692;28;20485;-76
2023/05/19 10:13:30;;;;;;;3.50;1.52;;;21.10;61.90;;;-144.05;27.21;56908.31;5053326;28;20067;-79